createdAt,value
2023-05-05T00:01:55.489Z,24.76
2023-05-05T00:04:22.255Z,24.74
2023-05-05T00:06:48.964Z,24.75
2023-05-05T00:09:15.496Z,24.76
2023-05-05T00:11:42.089Z,24.76
2023-05-05T00:14:08.598Z,24.77
2023-05-05T00:16:35.127Z,24.75
2023-05-05T00:19:01.686Z,24.74
2023-05-05T00:21:28.304Z,24.76
2023-05-05T00:23:54.838Z,24.76
2023-05-05T00:26:21.274Z,24.75
2023-05-05T00:28:47.803Z,24.74
2023-05-05T00:31:14.309Z,24.73
2023-05-05T00:33:40.872Z,24.73
2023-05-05T00:36:07.363Z,24.71
2023-05-05T00:38:33.886Z,24.74
2023-05-05T00:41:00.424Z,24.71
2023-05-05T00:43:27.014Z,24.75
2023-05-05T00:45:53.511Z,24.75
2023-05-05T00:48:19.935Z,24.75
2023-05-05T00:50:46.480Z,24.72
2023-05-05T00:53:13.082Z,24.74
2023-05-05T00:55:39.592Z,24.77
2023-05-05T00:58:06.130Z,24.73
2023-05-05T01:00:32.700Z,24.73
2023-05-05T01:02:59.300Z,24.72
2023-05-05T01:05:25.916Z,24.73
2023-05-05T01:07:52.472Z,24.67
2023-05-05T01:10:20.571Z,24.73
2023-05-05T01:12:47.462Z,24.72
2023-05-05T01:15:14.076Z,24.66
2023-05-05T01:17:40.675Z,24.73
2023-05-05T01:20:07.475Z,24.69
2023-05-05T01:22:34.131Z,24.71
2023-05-05T01:25:00.665Z,24.72
2023-05-05T01:27:27.146Z,24.65
2023-05-05T01:29:53.623Z,24.69
2023-05-05T01:32:20.160Z,24.73
2023-05-05T01:34:46.677Z,24.71
2023-05-05T01:37:13.238Z,24.71
2023-05-05T01:39:39.777Z,24.71
2023-05-05T01:42:06.355Z,24.65
2023-05-05T01:44:32.848Z,24.69
2023-05-05T01:46:59.379Z,24.69
2023-05-05T01:49:26.010Z,24.66
2023-05-05T01:51:52.472Z,24.65
2023-05-05T01:54:19.017Z,24.70
2023-05-05T01:56:45.669Z,24.70
2023-05-05T01:59:12.196Z,24.67
2023-05-05T02:01:38.891Z,24.66
2023-05-05T02:04:05.448Z,24.61
2023-05-05T02:06:32.027Z,24.64
2023-05-05T02:08:58.579Z,24.61
2023-05-05T02:11:25.136Z,24.64
2023-05-05T02:13:51.641Z,24.70
2023-05-05T02:16:18.270Z,24.68
2023-05-05T02:18:44.844Z,24.68
2023-05-05T02:21:11.357Z,24.69
2023-05-05T02:23:37.817Z,24.64
2023-05-05T02:26:04.400Z,24.63
2023-05-05T02:28:30.956Z,24.61
2023-05-05T02:30:57.643Z,24.66
2023-05-05T02:33:24.162Z,24.61
2023-05-05T02:35:50.718Z,24.66
2023-05-05T02:38:20.253Z,24.67
2023-05-05T02:40:46.718Z,24.63
2023-05-05T02:43:13.259Z,24.60
2023-05-05T02:45:42.489Z,24.67
2023-05-05T02:48:08.988Z,24.61
2023-05-05T02:50:35.517Z,24.64
2023-05-05T02:53:02.018Z,24.66
2023-05-05T02:55:28.499Z,24.63
2023-05-05T02:57:57.401Z,24.59
2023-05-05T03:00:23.848Z,24.64
2023-05-05T03:02:50.509Z,24.60
2023-05-05T03:05:17.054Z,24.64
2023-05-05T03:07:43.611Z,24.66
2023-05-05T03:10:10.343Z,24.64
2023-05-05T03:12:37.058Z,24.62
2023-05-05T03:15:03.687Z,24.59
2023-05-05T03:17:30.204Z,24.59
2023-05-05T03:19:56.677Z,24.57
2023-05-05T03:22:23.205Z,24.56
2023-05-05T03:24:49.675Z,24.57
2023-05-05T03:27:16.290Z,24.60
2023-05-05T03:29:42.894Z,24.56
2023-05-05T03:32:09.591Z,24.55
2023-05-05T03:34:36.165Z,24.58
2023-05-05T03:37:02.720Z,24.60
2023-05-05T03:39:29.130Z,24.56
2023-05-05T03:41:55.636Z,24.61
2023-05-05T03:44:22.207Z,24.61
2023-05-05T03:46:48.733Z,24.58
2023-05-05T03:49:15.157Z,24.52
2023-05-05T03:51:41.643Z,24.60
2023-05-05T03:54:08.153Z,24.58
2023-05-05T03:56:34.658Z,24.54
2023-05-05T03:59:01.122Z,24.58
2023-05-05T04:01:27.531Z,24.55
2023-05-05T04:03:54.094Z,24.55
2023-05-05T04:06:20.669Z,24.57
2023-05-05T04:08:47.252Z,24.59
2023-05-05T04:11:13.747Z,24.53
2023-05-05T04:13:40.356Z,24.51
2023-05-05T04:16:06.902Z,24.53
2023-05-05T04:18:33.446Z,24.52
2023-05-05T04:20:59.952Z,24.53
2023-05-05T04:23:26.484Z,24.55
2023-05-05T04:25:53.033Z,24.55
2023-05-05T04:28:21.636Z,24.55
2023-05-05T04:30:48.700Z,24.54
2023-05-05T04:33:15.254Z,24.57
2023-05-05T04:35:41.761Z,24.56
2023-05-05T04:38:08.167Z,24.50
2023-05-05T04:40:34.707Z,24.54
2023-05-05T04:43:01.159Z,24.51
2023-05-05T04:45:27.717Z,24.49
2023-05-05T04:47:54.217Z,24.52
2023-05-05T04:50:20.837Z,24.49
2023-05-05T04:52:47.390Z,24.49
2023-05-05T04:55:13.890Z,24.56
2023-05-05T04:57:40.370Z,24.53
2023-05-05T05:00:07.096Z,24.54
2023-05-05T05:02:34.034Z,24.54
2023-05-05T05:05:00.682Z,24.58
2023-05-05T05:07:27.298Z,24.61
2023-05-05T05:09:53.859Z,24.53
2023-05-05T05:12:20.344Z,24.53
2023-05-05T05:14:46.827Z,24.61
2023-05-05T05:17:13.294Z,24.58
2023-05-05T05:19:39.726Z,24.65
2023-05-05T05:22:06.173Z,24.66
2023-05-05T05:24:32.644Z,24.63
2023-05-05T05:27:02.213Z,24.64
2023-05-05T05:29:28.720Z,24.64
2023-05-05T05:31:55.253Z,24.61
2023-05-05T05:34:21.932Z,24.67
2023-05-05T05:36:48.470Z,24.61
2023-05-05T05:39:14.996Z,24.68
2023-05-05T05:41:41.478Z,24.66
2023-05-05T05:44:08.072Z,24.60
2023-05-05T05:46:34.557Z,24.64
2023-05-05T05:49:04.065Z,24.70
2023-05-05T05:51:30.555Z,24.67
2023-05-05T05:53:58.716Z,24.71
2023-05-05T05:56:25.534Z,24.68
2023-05-05T07:24:06.674Z,25.03
2023-05-05T07:26:35.954Z,25.05
2023-05-05T07:29:02.481Z,25.07
2023-05-05T07:31:29.158Z,25.03
2023-05-05T07:33:58.549Z,25.02
2023-05-05T07:36:24.999Z,25.05
2023-05-05T07:38:51.604Z,24.99
2023-05-05T07:41:18.156Z,25.09
2023-05-05T07:43:44.816Z,25.05
2023-05-05T07:46:11.487Z,24.99
2023-05-05T07:48:38.128Z,25.07
2023-05-05T07:51:04.555Z,25.10
2023-05-05T07:53:31.079Z,25.10
2023-05-05T07:55:57.715Z,25.06
2023-05-05T07:58:24.181Z,25.11
2023-05-05T08:00:50.717Z,25.16
2023-05-05T08:03:17.279Z,25.10
2023-05-05T08:05:43.854Z,25.16
2023-05-05T08:08:10.362Z,25.08
2023-05-05T08:10:36.954Z,25.11
2023-05-05T08:13:03.455Z,25.12
2023-05-05T08:15:32.792Z,25.18
2023-05-05T08:17:59.337Z,25.11
2023-05-05T08:20:25.764Z,25.14
2023-05-05T08:22:52.267Z,25.14
2023-05-05T08:25:18.771Z,25.13
2023-05-05T08:27:45.298Z,25.16
2023-05-05T08:30:11.859Z,25.15
2023-05-05T08:32:38.466Z,25.20
2023-05-05T08:35:05.194Z,25.21
2023-05-05T08:37:31.734Z,25.21
2023-05-05T08:39:58.236Z,25.17
2023-05-05T08:42:36.229Z,25.20
2023-05-05T08:45:04.034Z,25.22
2023-05-05T08:47:30.496Z,25.13
2023-05-05T08:49:57.204Z,25.24
2023-05-05T08:52:23.715Z,25.21
2023-05-05T08:54:50.330Z,25.22
2023-05-05T08:57:16.795Z,25.13
2023-05-05T08:59:43.272Z,25.20
2023-05-05T09:02:09.907Z,25.22
2023-05-05T09:04:36.439Z,25.26
2023-05-05T09:07:02.862Z,25.26
2023-05-05T09:09:29.369Z,25.23
2023-05-05T09:11:55.994Z,25.30
2023-05-05T09:14:22.474Z,25.30
2023-05-05T09:16:48.995Z,25.32
2023-05-05T09:19:15.443Z,25.38
2023-05-05T09:21:41.984Z,25.39
2023-05-05T09:24:09.316Z,25.38
2023-05-05T09:26:36.064Z,25.40
2023-05-05T09:29:02.697Z,25.37
2023-05-05T09:31:29.272Z,25.37
2023-05-05T09:33:55.776Z,25.38
2023-05-05T09:36:22.312Z,25.40
2023-05-05T09:38:48.776Z,25.38
2023-05-05T09:41:15.272Z,25.48
2023-05-05T09:43:42.007Z,25.46
2023-05-05T09:46:08.552Z,25.50
2023-05-05T09:48:35.174Z,25.52
2023-05-05T09:51:01.718Z,25.51
2023-05-05T09:53:28.281Z,25.46
2023-05-05T09:55:54.730Z,25.46
2023-05-05T09:58:21.308Z,25.45
2023-05-05T10:00:47.902Z,25.40
2023-05-05T10:03:14.463Z,25.40
2023-05-05T10:05:40.983Z,25.41
2023-05-05T10:08:10.316Z,25.38
2023-05-05T10:10:36.770Z,25.38
2023-05-05T10:13:03.307Z,25.41
2023-05-05T10:15:29.809Z,25.40
2023-05-05T10:18:06.659Z,25.31
2023-05-05T10:20:33.812Z,25.28
2023-05-05T10:23:00.266Z,25.28
2023-05-05T10:25:26.777Z,25.23
2023-05-05T10:27:53.300Z,25.22
2023-05-05T10:30:19.755Z,25.28
2023-05-05T10:32:59.318Z,25.28
2023-05-05T10:35:30.800Z,25.23
2023-05-05T10:37:57.310Z,25.28
2023-05-05T10:40:23.747Z,25.27
2023-05-05T10:42:50.274Z,25.27
2023-05-05T10:45:16.779Z,25.29
2023-05-05T10:47:43.398Z,25.29
2023-05-05T10:50:10.102Z,25.27
2023-05-05T10:52:36.744Z,25.27
2023-05-05T10:55:03.214Z,25.30
2023-05-05T10:57:29.716Z,25.26
2023-05-05T10:59:56.233Z,25.30
2023-05-05T11:02:22.763Z,25.24
2023-05-05T11:04:49.336Z,25.34
2023-05-05T11:07:15.850Z,25.35
2023-05-05T11:09:42.313Z,25.36
2023-05-05T11:12:08.866Z,25.34
2023-05-05T14:13:23.954Z,27.28
2023-05-05T14:15:50.444Z,27.42
2023-05-05T14:18:17.022Z,27.07
2023-05-05T14:20:43.494Z,26.99
2023-05-05T14:23:10.065Z,27.09
2023-05-05T14:25:36.570Z,27.08
2023-05-05T14:28:03.064Z,27.25
2023-05-05T14:30:29.631Z,26.93
2023-05-05T14:32:56.130Z,26.83
2023-05-05T14:35:22.638Z,26.79
2023-05-05T14:37:49.120Z,26.90
2023-05-05T14:40:15.632Z,26.77
2023-05-05T14:42:42.102Z,26.84
2023-05-05T14:45:08.681Z,27.24
2023-05-05T14:47:35.247Z,27.02
2023-05-05T14:50:01.720Z,27.13
2023-05-05T14:52:28.203Z,27.35
2023-05-05T14:54:54.617Z,27.24
2023-05-05T14:57:21.121Z,27.58
2023-05-05T14:59:47.621Z,27.87
2023-05-05T15:02:14.026Z,29.83
2023-05-05T15:04:40.523Z,32.14
2023-05-05T15:07:07.001Z,33.12
2023-05-05T15:09:33.436Z,33.60
2023-05-05T15:11:59.914Z,33.63
2023-05-05T15:14:26.461Z,33.81
2023-05-05T15:16:52.895Z,33.65
2023-05-05T15:19:19.310Z,33.82
2023-05-05T15:21:45.777Z,34.38
2023-05-05T15:24:12.362Z,34.70
2023-05-05T15:26:38.880Z,33.85
2023-05-05T15:29:05.412Z,33.70
2023-05-05T15:31:31.941Z,34.50
2023-05-05T15:33:58.396Z,35.26
2023-05-05T15:36:24.840Z,34.08
2023-05-05T15:38:51.313Z,35.13
2023-05-05T15:41:17.825Z,34.59
2023-05-05T15:43:44.241Z,34.65
2023-05-05T15:46:10.717Z,32.03
2023-05-05T15:48:37.208Z,30.43
2023-05-05T15:51:03.705Z,29.53
2023-05-05T15:53:30.188Z,29.02
2023-05-05T15:55:56.675Z,28.42
2023-05-05T15:58:23.129Z,28.03
2023-05-05T16:00:49.571Z,27.89
2023-05-05T16:03:16.052Z,27.62
2023-05-05T16:05:42.612Z,27.45
2023-05-05T16:08:09.099Z,27.24
2023-05-05T16:10:35.628Z,27.66
2023-05-05T16:13:02.141Z,27.92
2023-05-05T16:15:28.730Z,27.74
2023-05-05T16:17:55.233Z,27.42
2023-05-05T16:20:21.806Z,27.18
2023-05-05T16:22:48.259Z,27.11
2023-05-05T16:25:14.850Z,28.45
2023-05-05T16:27:41.402Z,29.60
2023-05-05T16:30:07.898Z,29.46
2023-05-05T16:32:34.385Z,31.93
2023-05-05T16:35:00.880Z,28.88
2023-05-05T16:37:27.416Z,28.20
2023-05-05T16:39:53.957Z,27.85
2023-05-05T16:42:20.433Z,27.88
2023-05-05T16:44:46.881Z,28.04
2023-05-05T16:47:13.435Z,27.94
2023-05-05T16:49:39.913Z,27.73
2023-05-05T16:52:06.396Z,27.72
2023-05-05T16:54:32.918Z,27.60
2023-05-05T16:56:59.378Z,27.37
2023-05-05T16:59:25.821Z,27.07
2023-05-05T17:01:52.387Z,27.11
2023-05-05T17:04:18.937Z,27.09
2023-05-05T17:06:45.373Z,26.96
2023-05-05T17:09:11.882Z,26.88
2023-05-05T17:11:38.353Z,27.03
2023-05-05T17:14:04.929Z,27.03
2023-05-05T17:16:31.553Z,26.82
2023-05-05T17:18:58.125Z,26.85
2023-05-05T17:21:24.606Z,27.26
2023-05-05T17:23:53.804Z,26.74
2023-05-05T17:26:20.317Z,26.69
2023-05-05T17:28:46.858Z,26.76
2023-05-05T17:31:13.371Z,26.67
2023-05-05T17:33:39.897Z,26.44
2023-05-05T17:36:06.389Z,26.46
2023-05-05T17:38:32.913Z,26.43
2023-05-05T17:40:59.437Z,26.50
2023-05-05T17:43:25.930Z,26.57
2023-05-05T17:45:52.369Z,26.48
2023-05-05T17:48:18.967Z,26.28
2023-05-05T17:50:45.489Z,26.32
2023-05-05T17:53:12.043Z,26.38
2023-05-05T17:55:38.530Z,26.33
2023-05-05T17:58:05.063Z,26.30
2023-05-05T18:00:31.491Z,26.15
2023-05-05T18:02:58.119Z,26.20
2023-05-05T18:05:24.693Z,26.20
2023-05-05T18:07:51.268Z,26.19
2023-05-05T18:10:17.766Z,26.11
2023-05-05T18:12:44.236Z,26.07
2023-05-05T18:15:10.922Z,26.03
2023-05-05T18:17:37.759Z,25.85
2023-05-05T18:20:04.210Z,25.99
2023-05-05T18:22:33.492Z,25.71
2023-05-05T18:25:00.011Z,25.73
2023-05-05T18:27:26.551Z,25.57
2023-05-05T18:29:53.098Z,25.63
2023-05-05T18:32:19.639Z,25.66
2023-05-05T18:34:46.120Z,25.66
2023-05-05T18:37:12.614Z,25.69
2023-05-05T18:39:39.095Z,25.75
2023-05-05T18:42:05.602Z,25.62
2023-05-05T18:44:32.169Z,25.64
2023-05-05T18:46:58.865Z,25.70
2023-05-05T18:49:25.398Z,25.73
2023-05-05T18:51:51.917Z,25.70
2023-05-05T18:54:18.507Z,25.68
2023-05-05T18:56:45.110Z,25.64
2023-05-05T18:59:11.715Z,25.60
2023-05-05T19:01:38.279Z,25.63
2023-05-05T19:04:08.421Z,25.58
2023-05-05T19:06:39.418Z,25.59
2023-05-05T19:09:05.906Z,25.60
2023-05-05T19:11:32.417Z,25.59
2023-05-05T19:13:58.984Z,25.59
2023-05-05T19:16:26.223Z,25.58
2023-05-05T19:18:53.603Z,25.54
2023-05-05T19:21:20.158Z,25.51
2023-05-05T19:23:46.759Z,25.49
2023-05-05T19:26:13.299Z,25.49
